sensor_id;sensor_type;location;lat;lon;timestamp;temperature;humidity
13652;DHT22;6899;51.546;6.912;2023-04-24T00:01:25;10.20;99.90
13652;DHT22;6899;51.546;6.912;2023-04-24T00:03:52;10.20;99.90
13652;DHT22;6899;51.546;6.912;2023-04-24T00:06:19;10.30;99.90
13652;DHT22;6899;51.546;6.912;2023-04-24T00:08:45;10.30;99.90
13652;DHT22;6899;51.546;6.912;2023-04-24T00:11:12;10.30;99.90
13652;DHT22;6899;51.546;6.912;2023-04-24T00:13:39;10.30;99.90
13652;DHT22;6899;51.546;6.912;2023-04-24T00:16:06;10.20;99.90
13652;DHT22;6899;51.546;6.912;2023-04-24T00:18:34;10.20;99.90
13652;DHT22;6899;51.546;6.912;2023-04-24T00:21:01;10.20;99.90
13652;DHT22;6899;51.546;6.912;2023-04-24T00:23:43;10.30;99.90
13652;DHT22;6899;51.546;6.912;2023-04-24T00:26:15;10.30;99.90
13652;DHT22;6899;51.546;6.912;2023-04-24T00:28:42;10.40;99.90
13652;DHT22;6899;51.546;6.912;2023-04-24T00:31:09;10.40;99.90
13652;DHT22;6899;51.546;6.912;2023-04-24T00:33:37;10.40;99.90
13652;DHT22;6899;51.546;6.912;2023-04-24T00:36:04;10.40;99.90
13652;DHT22;6899;51.546;6.912;2023-04-24T00:38:31;10.40;99.90
13652;DHT22;6899;51.546;6.912;2023-04-24T00:40:58;10.40;99.90
13652;DHT22;6899;51.546;6.912;2023-04-24T00:43:25;10.50;99.90
13652;DHT22;6899;51.546;6.912;2023-04-24T00:45:52;10.50;99.90
13652;DHT22;6899;51.546;6.912;2023-04-24T00:48:20;10.50;99.90
13652;DHT22;6899;51.546;6.912;2023-04-24T00:50:48;10.50;99.90
13652;DHT22;6899;51.546;6.912;2023-04-24T00:53:21;10.40;99.90
13652;DHT22;6899;51.546;6.912;2023-04-24T00:55:51;10.40;99.90
13652;DHT22;6899;51.546;6.912;2023-04-24T00:58:18;10.30;99.90
13652;DHT22;6899;51.546;6.912;2023-04-24T01:00:45;10.20;99.90
13652;DHT22;6899;51.546;6.912;2023-04-24T01:03:13;10.20;99.90
13652;DHT22;6899;51.546;6.912;2023-04-24T01:05:39;10.20;99.90
13652;DHT22;6899;51.546;6.912;2023-04-24T01:08:08;10.20;99.90
13652;DHT22;6899;51.546;6.912;2023-04-24T01:10:36;10.10;99.90
13652;DHT22;6899;51.546;6.912;2023-04-24T01:13:04;10.00;99.90
13652;DHT22;6899;51.546;6.912;2023-04-24T01:15:34;10.00;99.90
13652;DHT22;6899;51.546;6.912;2023-04-24T01:18:01;10.00;99.90
13652;DHT22;6899;51.546;6.912;2023-04-24T01:20:28;9.90;99.90
13652;DHT22;6899;51.546;6.912;2023-04-24T01:22:57;9.80;99.90
13652;DHT22;6899;51.546;6.912;2023-04-24T01:25:24;9.70;99.90
13652;DHT22;6899;51.546;6.912;2023-04-24T01:27:52;9.60;99.90
13652;DHT22;6899;51.546;6.912;2023-04-24T01:30:19;9.40;99.90
13652;DHT22;6899;51.546;6.912;2023-04-24T01:32:45;9.20;99.90
13652;DHT22;6899;51.546;6.912;2023-04-24T01:35:12;9.10;99.90
13652;DHT22;6899;51.546;6.912;2023-04-24T01:37:39;8.90;99.90
13652;DHT22;6899;51.546;6.912;2023-04-24T01:40:08;8.90;99.90
13652;DHT22;6899;51.546;6.912;2023-04-24T01:42:35;8.80;99.90
13652;DHT22;6899;51.546;6.912;2023-04-24T01:45:04;8.80;99.90
13652;DHT22;6899;51.546;6.912;2023-04-24T01:47:31;8.80;99.90
13652;DHT22;6899;51.546;6.912;2023-04-24T01:49:58;8.80;99.90
13652;DHT22;6899;51.546;6.912;2023-04-24T01:52:26;8.90;99.90
13652;DHT22;6899;51.546;6.912;2023-04-24T01:54:54;9.00;99.90
13652;DHT22;6899;51.546;6.912;2023-04-24T01:57:22;9.10;99.90
13652;DHT22;6899;51.546;6.912;2023-04-24T01:59:50;9.20;99.90
13652;DHT22;6899;51.546;6.912;2023-04-24T02:02:17;9.20;99.90
13652;DHT22;6899;51.546;6.912;2023-04-24T02:04:49;9.30;99.90
13652;DHT22;6899;51.546;6.912;2023-04-24T02:07:19;9.30;99.90
13652;DHT22;6899;51.546;6.912;2023-04-24T02:09:46;9.30;99.90
13652;DHT22;6899;51.546;6.912;2023-04-24T02:12:13;9.30;99.90
13652;DHT22;6899;51.546;6.912;2023-04-24T02:14:41;9.30;99.90
13652;DHT22;6899;51.546;6.912;2023-04-24T02:17:08;9.30;99.90
13652;DHT22;6899;51.546;6.912;2023-04-24T02:19:38;9.40;99.90
13652;DHT22;6899;51.546;6.912;2023-04-24T02:22:05;9.40;99.90
13652;DHT22;6899;51.546;6.912;2023-04-24T02:24:32;9.40;99.90
13652;DHT22;6899;51.546;6.912;2023-04-24T02:26:59;9.40;99.90
13652;DHT22;6899;51.546;6.912;2023-04-24T02:29:25;9.40;99.90
13652;DHT22;6899;51.546;6.912;2023-04-24T02:32:02;9.40;99.90
13652;DHT22;6899;51.546;6.912;2023-04-24T02:34:29;9.40;99.90
13652;DHT22;6899;51.546;6.912;2023-04-24T02:36:56;9.30;99.90
13652;DHT22;6899;51.546;6.912;2023-04-24T02:39:23;9.40;99.90
13652;DHT22;6899;51.546;6.912;2023-04-24T02:41:49;9.40;99.90
13652;DHT22;6899;51.546;6.912;2023-04-24T02:44:19;9.40;99.90
13652;DHT22;6899;51.546;6.912;2023-04-24T02:46:47;9.40;99.90
13652;DHT22;6899;51.546;6.912;2023-04-24T02:49:15;9.30;99.90
13652;DHT22;6899;51.546;6.912;2023-04-24T02:51:41;9.40;99.90
13652;DHT22;6899;51.546;6.912;2023-04-24T02:54:08;9.40;99.90
13652;DHT22;6899;51.546;6.912;2023-04-24T02:56:35;9.30;99.90
13652;DHT22;6899;51.546;6.912;2023-04-24T02:59:02;9.30;99.90
13652;DHT22;6899;51.546;6.912;2023-04-24T03:01:29;9.30;99.90
13652;DHT22;6899;51.546;6.912;2023-04-24T03:03:56;9.30;99.90
13652;DHT22;6899;51.546;6.912;2023-04-24T03:06:24;9.30;99.90
13652;DHT22;6899;51.546;6.912;2023-04-24T03:08:52;9.30;99.90
13652;DHT22;6899;51.546;6.912;2023-04-24T03:11:25;9.30;99.90
13652;DHT22;6899;51.546;6.912;2023-04-24T03:13:57;9.30;99.90
13652;DHT22;6899;51.546;6.912;2023-04-24T03:16:24;9.30;99.90
13652;DHT22;6899;51.546;6.912;2023-04-24T03:18:51;9.30;99.90
13652;DHT22;6899;51.546;6.912;2023-04-24T03:21:18;9.30;99.90
13652;DHT22;6899;51.546;6.912;2023-04-24T03:23:46;9.30;99.90
13652;DHT22;6899;51.546;6.912;2023-04-24T03:26:12;9.30;99.90
13652;DHT22;6899;51.546;6.912;2023-04-24T03:28:39;9.30;99.90
13652;DHT22;6899;51.546;6.912;2023-04-24T03:31:06;9.20;99.90
13652;DHT22;6899;51.546;6.912;2023-04-24T03:33:33;9.20;99.90
13652;DHT22;6899;51.546;6.912;2023-04-24T03:35:59;9.30;99.90
13652;DHT22;6899;51.546;6.912;2023-04-24T03:38:26;9.30;99.90
13652;DHT22;6899;51.546;6.912;2023-04-24T03:40:54;9.30;99.90
13652;DHT22;6899;51.546;6.912;2023-04-24T03:43:21;9.30;99.90
13652;DHT22;6899;51.546;6.912;2023-04-24T03:45:48;9.30;99.90
13652;DHT22;6899;51.546;6.912;2023-04-24T03:48:15;9.30;99.90
13652;DHT22;6899;51.546;6.912;2023-04-24T03:50:41;9.30;99.90
13652;DHT22;6899;51.546;6.912;2023-04-24T03:53:08;9.30;99.90
13652;DHT22;6899;51.546;6.912;2023-04-24T03:55:35;9.30;99.90
13652;DHT22;6899;51.546;6.912;2023-04-24T03:58:03;9.30;99.90
13652;DHT22;6899;51.546;6.912;2023-04-24T04:00:30;9.30;99.90
13652;DHT22;6899;51.546;6.912;2023-04-24T04:03:01;9.30;99.90
13652;DHT22;6899;51.546;6.912;2023-04-24T04:05:28;9.30;99.90
13652;DHT22;6899;51.546;6.912;2023-04-24T04:07:55;9.30;99.90
13652;DHT22;6899;51.546;6.912;2023-04-24T04:10:21;9.40;99.90
13652;DHT22;6899;51.546;6.912;2023-04-24T04:12:48;9.30;99.90
13652;DHT22;6899;51.546;6.912;2023-04-24T04:15:16;9.30;99.90
13652;DHT22;6899;51.546;6.912;2023-04-24T04:17:43;9.30;99.90
13652;DHT22;6899;51.546;6.912;2023-04-24T04:20:11;9.40;99.90
13652;DHT22;6899;51.546;6.912;2023-04-24T04:22:38;9.30;99.90
13652;DHT22;6899;51.546;6.912;2023-04-24T04:25:05;9.30;99.90
13652;DHT22;6899;51.546;6.912;2023-04-24T04:27:35;9.30;99.90
13652;DHT22;6899;51.546;6.912;2023-04-24T04:30:02;9.30;99.90
13652;DHT22;6899;51.546;6.912;2023-04-24T04:32:31;9.40;99.90
13652;DHT22;6899;51.546;6.912;2023-04-24T04:34:58;9.40;99.90
13652;DHT22;6899;51.546;6.912;2023-04-24T04:37:28;9.40;99.90
13652;DHT22;6899;51.546;6.912;2023-04-24T04:39:55;9.40;99.90
13652;DHT22;6899;51.546;6.912;2023-04-24T04:42:23;9.40;99.90
13652;DHT22;6899;51.546;6.912;2023-04-24T04:44:53;9.40;99.90
13652;DHT22;6899;51.546;6.912;2023-04-24T04:47:21;9.40;99.90
13652;DHT22;6899;51.546;6.912;2023-04-24T04:49:49;9.40;99.90
13652;DHT22;6899;51.546;6.912;2023-04-24T04:52:17;9.30;99.90
13652;DHT22;6899;51.546;6.912;2023-04-24T04:54:44;9.30;99.90
13652;DHT22;6899;51.546;6.912;2023-04-24T04:57:11;9.30;99.90
13652;DHT22;6899;51.546;6.912;2023-04-24T04:59:38;9.30;99.90
13652;DHT22;6899;51.546;6.912;2023-04-24T05:02:06;9.30;99.90
13652;DHT22;6899;51.546;6.912;2023-04-24T05:04:33;9.30;99.90
13652;DHT22;6899;51.546;6.912;2023-04-24T05:07:07;9.30;99.90
13652;DHT22;6899;51.546;6.912;2023-04-24T05:09:33;9.40;99.90
13652;DHT22;6899;51.546;6.912;2023-04-24T05:12:00;9.40;99.90
13652;DHT22;6899;51.546;6.912;2023-04-24T05:14:27;9.40;99.90
13652;DHT22;6899;51.546;6.912;2023-04-24T05:16:54;9.40;99.90
13652;DHT22;6899;51.546;6.912;2023-04-24T05:19:21;9.40;99.90
13652;DHT22;6899;51.546;6.912;2023-04-24T05:21:47;9.40;99.90
13652;DHT22;6899;51.546;6.912;2023-04-24T05:24:15;9.40;99.90
13652;DHT22;6899;51.546;6.912;2023-04-24T05:26:42;9.30;99.90
13652;DHT22;6899;51.546;6.912;2023-04-24T05:29:09;9.30;99.90
13652;DHT22;6899;51.546;6.912;2023-04-24T05:31:35;9.30;99.90
13652;DHT22;6899;51.546;6.912;2023-04-24T05:34:02;9.20;99.90
13652;DHT22;6899;51.546;6.912;2023-04-24T05:36:29;9.20;99.90
13652;DHT22;6899;51.546;6.912;2023-04-24T05:38:56;9.00;99.90
13652;DHT22;6899;51.546;6.912;2023-04-24T05:41:24;9.00;99.90
13652;DHT22;6899;51.546;6.912;2023-04-24T05:43:57;8.90;99.90
13652;DHT22;6899;51.546;6.912;2023-04-24T05:46:27;8.80;99.90
13652;DHT22;6899;51.546;6.912;2023-04-24T05:48:53;8.80;99.90
13652;DHT22;6899;51.546;6.912;2023-04-24T05:51:20;8.80;99.90
13652;DHT22;6899;51.546;6.912;2023-04-24T05:53:47;8.80;99.90
13652;DHT22;6899;51.546;6.912;2023-04-24T05:56:16;8.80;99.90
13652;DHT22;6899;51.546;6.912;2023-04-24T05:58:50;8.90;99.90
13652;DHT22;6899;51.546;6.912;2023-04-24T06:01:23;9.00;99.90
13652;DHT22;6899;51.546;6.912;2023-04-24T06:03:53;9.10;99.90
13652;DHT22;6899;51.546;6.912;2023-04-24T06:06:20;9.10;99.90
13652;DHT22;6899;51.546;6.912;2023-04-24T06:08:46;9.10;99.90
13652;DHT22;6899;51.546;6.912;2023-04-24T06:11:13;9.10;99.90
13652;DHT22;6899;51.546;6.912;2023-04-24T06:13:40;9.10;99.90
13652;DHT22;6899;51.546;6.912;2023-04-24T06:16:08;9.20;99.90
13652;DHT22;6899;51.546;6.912;2023-04-24T06:18:35;9.20;99.90
13652;DHT22;6899;51.546;6.912;2023-04-24T06:21:01;9.20;99.90
13652;DHT22;6899;51.546;6.912;2023-04-24T06:23:31;9.10;99.90
13652;DHT22;6899;51.546;6.912;2023-04-24T06:25:58;9.10;99.90
13652;DHT22;6899;51.546;6.912;2023-04-24T06:28:25;9.10;99.90
13652;DHT22;6899;51.546;6.912;2023-04-24T06:30:52;9.00;99.90
13652;DHT22;6899;51.546;6.912;2023-04-24T06:33:20;9.00;99.90
13652;DHT22;6899;51.546;6.912;2023-04-24T06:35:53;8.90;99.90
13652;DHT22;6899;51.546;6.912;2023-04-24T06:38:29;8.80;99.90
13652;DHT22;6899;51.546;6.912;2023-04-24T06:40:56;8.70;99.90
13652;DHT22;6899;51.546;6.912;2023-04-24T06:43:28;8.80;99.90
13652;DHT22;6899;51.546;6.912;2023-04-24T06:45:58;8.80;99.90
13652;DHT22;6899;51.546;6.912;2023-04-24T06:48:26;9.10;99.90
13652;DHT22;6899;51.546;6.912;2023-04-24T06:50:53;9.40;99.90
13652;DHT22;6899;51.546;6.912;2023-04-24T06:53:20;9.50;99.90
13652;DHT22;6899;51.546;6.912;2023-04-24T06:55:52;9.50;99.90
13652;DHT22;6899;51.546;6.912;2023-04-24T06:58:20;9.30;99.90
13652;DHT22;6899;51.546;6.912;2023-04-24T07:00:50;9.20;99.90
13652;DHT22;6899;51.546;6.912;2023-04-24T07:03:16;9.10;99.90
13652;DHT22;6899;51.546;6.912;2023-04-24T07:05:44;8.90;99.90
13652;DHT22;6899;51.546;6.912;2023-04-24T07:08:11;8.80;99.90
13652;DHT22;6899;51.546;6.912;2023-04-24T07:10:39;8.70;99.90
13652;DHT22;6899;51.546;6.912;2023-04-24T07:13:05;8.70;99.90
13652;DHT22;6899;51.546;6.912;2023-04-24T07:15:33;8.70;99.90
13652;DHT22;6899;51.546;6.912;2023-04-24T07:18:00;8.70;99.90
13652;DHT22;6899;51.546;6.912;2023-04-24T07:20:30;8.60;99.90
13652;DHT22;6899;51.546;6.912;2023-04-24T07:22:58;8.70;99.90
13652;DHT22;6899;51.546;6.912;2023-04-24T07:25:25;8.60;99.90
13652;DHT22;6899;51.546;6.912;2023-04-24T07:27:52;8.60;99.90
13652;DHT22;6899;51.546;6.912;2023-04-24T07:30:19;8.60;99.90
13652;DHT22;6899;51.546;6.912;2023-04-24T07:32:46;8.60;99.90
13652;DHT22;6899;51.546;6.912;2023-04-24T07:35:16;8.60;99.90
13652;DHT22;6899;51.546;6.912;2023-04-24T07:37:48;8.60;99.90
13652;DHT22;6899;51.546;6.912;2023-04-24T07:40:20;8.60;99.90
13652;DHT22;6899;51.546;6.912;2023-04-24T07:42:47;8.70;99.90
13652;DHT22;6899;51.546;6.912;2023-04-24T07:45:14;8.80;99.90
13652;DHT22;6899;51.546;6.912;2023-04-24T07:47:41;9.00;99.90
13652;DHT22;6899;51.546;6.912;2023-04-24T07:50:09;9.00;99.90
13652;DHT22;6899;51.546;6.912;2023-04-24T07:52:36;9.00;99.90
13652;DHT22;6899;51.546;6.912;2023-04-24T07:55:03;9.00;99.90
13652;DHT22;6899;51.546;6.912;2023-04-24T07:57:32;8.90;99.90
13652;DHT22;6899;51.546;6.912;2023-04-24T07:59:58;8.90;99.90
13652;DHT22;6899;51.546;6.912;2023-04-24T08:02:25;8.80;99.90
13652;DHT22;6899;51.546;6.912;2023-04-24T08:04:52;8.60;99.90
13652;DHT22;6899;51.546;6.912;2023-04-24T08:07:20;8.40;99.90
13652;DHT22;6899;51.546;6.912;2023-04-24T08:09:47;8.30;99.90
13652;DHT22;6899;51.546;6.912;2023-04-24T08:12:17;8.30;99.90
13652;DHT22;6899;51.546;6.912;2023-04-24T08:14:48;8.20;99.90
13652;DHT22;6899;51.546;6.912;2023-04-24T08:17:14;8.10;99.90
13652;DHT22;6899;51.546;6.912;2023-04-24T08:19:42;8.10;99.90
13652;DHT22;6899;51.546;6.912;2023-04-24T08:22:13;8.10;99.90
13652;DHT22;6899;51.546;6.912;2023-04-24T08:24:40;8.10;99.90
13652;DHT22;6899;51.546;6.912;2023-04-24T08:27:08;8.00;99.90
13652;DHT22;6899;51.546;6.912;2023-04-24T08:29:35;8.00;99.90
13652;DHT22;6899;51.546;6.912;2023-04-24T08:32:03;8.00;99.90
13652;DHT22;6899;51.546;6.912;2023-04-24T08:34:30;8.10;99.90
13652;DHT22;6899;51.546;6.912;2023-04-24T08:36:56;8.00;99.90
13652;DHT22;6899;51.546;6.912;2023-04-24T08:39:23;8.20;99.90
13652;DHT22;6899;51.546;6.912;2023-04-24T08:41:50;8.60;99.90
13652;DHT22;6899;51.546;6.912;2023-04-24T08:44:22;8.80;99.90
13652;DHT22;6899;51.546;6.912;2023-04-24T08:46:49;8.70;99.90
13652;DHT22;6899;51.546;6.912;2023-04-24T08:49:21;8.70;99.90
13652;DHT22;6899;51.546;6.912;2023-04-24T08:51:50;8.80;99.90
13652;DHT22;6899;51.546;6.912;2023-04-24T08:54:19;8.90;99.90
13652;DHT22;6899;51.546;6.912;2023-04-24T08:56:47;9.10;99.90
13652;DHT22;6899;51.546;6.912;2023-04-24T08:59:15;9.10;99.90
13652;DHT22;6899;51.546;6.912;2023-04-24T09:01:43;9.30;99.90
13652;DHT22;6899;51.546;6.912;2023-04-24T09:04:12;9.70;99.90
13652;DHT22;6899;51.546;6.912;2023-04-24T09:06:42;9.80;99.90
13652;DHT22;6899;51.546;6.912;2023-04-24T09:09:10;9.80;99.90
13652;DHT22;6899;51.546;6.912;2023-04-24T09:11:37;9.80;99.90
13652;DHT22;6899;51.546;6.912;2023-04-24T09:14:04;9.60;99.90
13652;DHT22;6899;51.546;6.912;2023-04-24T09:16:31;9.60;99.90
13652;DHT22;6899;51.546;6.912;2023-04-24T09:18:58;9.60;99.90
13652;DHT22;6899;51.546;6.912;2023-04-24T09:21:31;9.60;99.90
13652;DHT22;6899;51.546;6.912;2023-04-24T09:24:01;9.50;99.90
13652;DHT22;6899;51.546;6.912;2023-04-24T09:26:30;9.40;99.90
13652;DHT22;6899;51.546;6.912;2023-04-24T09:28:58;9.20;99.90
13652;DHT22;6899;51.546;6.912;2023-04-24T09:31:32;8.80;99.90
13652;DHT22;6899;51.546;6.912;2023-04-24T09:34:00;8.70;99.90
13652;DHT22;6899;51.546;6.912;2023-04-24T09:36:34;8.70;99.90
13652;DHT22;6899;51.546;6.912;2023-04-24T09:39:05;8.60;99.90
13652;DHT22;6899;51.546;6.912;2023-04-24T09:41:33;8.60;99.90
13652;DHT22;6899;51.546;6.912;2023-04-24T09:44:11;8.70;99.90
13652;DHT22;6899;51.546;6.912;2023-04-24T09:46:38;8.60;99.90
13652;DHT22;6899;51.546;6.912;2023-04-24T09:49:09;8.50;99.90
13652;DHT22;6899;51.546;6.912;2023-04-24T09:51:37;8.40;99.90
13652;DHT22;6899;51.546;6.912;2023-04-24T09:54:13;8.40;99.90
13652;DHT22;6899;51.546;6.912;2023-04-24T09:56:48;8.30;99.90
13652;DHT22;6899;51.546;6.912;2023-04-24T09:59:17;8.30;99.90
13652;DHT22;6899;51.546;6.912;2023-04-24T10:01:50;8.20;99.90
13652;DHT22;6899;51.546;6.912;2023-04-24T10:04:18;8.10;99.90
13652;DHT22;6899;51.546;6.912;2023-04-24T10:06:46;8.30;99.90
13652;DHT22;6899;51.546;6.912;2023-04-24T10:09:15;8.40;99.90
13652;DHT22;6899;51.546;6.912;2023-04-24T10:11:43;8.50;99.90
13652;DHT22;6899;51.546;6.912;2023-04-24T10:14:12;8.60;99.90
13652;DHT22;6899;51.546;6.912;2023-04-24T10:16:40;8.70;99.90
13652;DHT22;6899;51.546;6.912;2023-04-24T10:19:16;8.80;99.90
13652;DHT22;6899;51.546;6.912;2023-04-24T10:21:44;8.80;99.90
13652;DHT22;6899;51.546;6.912;2023-04-24T10:24:12;8.70;99.90
13652;DHT22;6899;51.546;6.912;2023-04-24T10:26:47;8.90;99.90
13652;DHT22;6899;51.546;6.912;2023-04-24T10:29:16;8.80;99.90
13652;DHT22;6899;51.546;6.912;2023-04-24T10:31:44;8.80;99.90
13652;DHT22;6899;51.546;6.912;2023-04-24T10:34:12;8.50;99.90
13652;DHT22;6899;51.546;6.912;2023-04-24T10:36:42;8.50;99.90
13652;DHT22;6899;51.546;6.912;2023-04-24T10:39:12;8.50;99.90
13652;DHT22;6899;51.546;6.912;2023-04-24T10:41:40;8.60;99.90
13652;DHT22;6899;51.546;6.912;2023-04-24T10:44:09;8.70;99.90
13652;DHT22;6899;51.546;6.912;2023-04-24T10:46:36;8.70;99.90
13652;DHT22;6899;51.546;6.912;2023-04-24T10:49:04;8.80;99.90
13652;DHT22;6899;51.546;6.912;2023-04-24T10:51:45;9.00;99.90
13652;DHT22;6899;51.546;6.912;2023-04-24T10:54:23;8.90;99.90
13652;DHT22;6899;51.546;6.912;2023-04-24T10:56:50;8.70;99.90
13652;DHT22;6899;51.546;6.912;2023-04-24T10:59:34;8.70;99.90
13652;DHT22;6899;51.546;6.912;2023-04-24T11:02:02;8.70;99.90
13652;DHT22;6899;51.546;6.912;2023-04-24T11:04:30;8.80;99.90
13652;DHT22;6899;51.546;6.912;2023-04-24T11:06:58;8.70;99.90
13652;DHT22;6899;51.546;6.912;2023-04-24T11:09:26;9.00;99.90
13652;DHT22;6899;51.546;6.912;2023-04-24T11:12:03;9.20;99.90
13652;DHT22;6899;51.546;6.912;2023-04-24T11:14:59;9.50;99.90
13652;DHT22;6899;51.546;6.912;2023-04-24T11:17:30;10.30;99.90
13652;DHT22;6899;51.546;6.912;2023-04-24T11:20:01;11.00;99.90
13652;DHT22;6899;51.546;6.912;2023-04-24T11:22:30;11.30;99.90
13652;DHT22;6899;51.546;6.912;2023-04-24T11:25:00;11.40;99.90
13652;DHT22;6899;51.546;6.912;2023-04-24T11:27:29;11.70;99.90
13652;DHT22;6899;51.546;6.912;2023-04-24T11:30:01;11.30;99.90
13652;DHT22;6899;51.546;6.912;2023-04-24T11:32:30;11.20;99.90
13652;DHT22;6899;51.546;6.912;2023-04-24T11:34:58;11.50;99.90
13652;DHT22;6899;51.546;6.912;2023-04-24T11:37:27;11.70;99.90
13652;DHT22;6899;51.546;6.912;2023-04-24T11:39:56;11.90;99.90
13652;DHT22;6899;51.546;6.912;2023-04-24T11:42:23;11.30;99.90
13652;DHT22;6899;51.546;6.912;2023-04-24T11:44:52;10.80;99.90
13652;DHT22;6899;51.546;6.912;2023-04-24T11:47:27;10.60;99.90
13652;DHT22;6899;51.546;6.912;2023-04-24T11:49:54;10.30;99.90
13652;DHT22;6899;51.546;6.912;2023-04-24T11:52:21;10.30;99.90
13652;DHT22;6899;51.546;6.912;2023-04-24T11:54:48;10.30;99.90
13652;DHT22;6899;51.546;6.912;2023-04-24T11:57:16;10.20;99.90
13652;DHT22;6899;51.546;6.912;2023-04-24T11:59:43;10.80;99.90
13652;DHT22;6899;51.546;6.912;2023-04-24T12:02:21;11.30;99.90
13652;DHT22;6899;51.546;6.912;2023-04-24T12:04:48;11.70;99.90
13652;DHT22;6899;51.546;6.912;2023-04-24T12:07:15;12.00;99.90
13652;DHT22;6899;51.546;6.912;2023-04-24T12:09:43;11.70;99.90
13652;DHT22;6899;51.546;6.912;2023-04-24T12:12:14;11.60;99.90
13652;DHT22;6899;51.546;6.912;2023-04-24T12:14:49;11.20;99.90
13652;DHT22;6899;51.546;6.912;2023-04-24T12:17:16;10.70;99.90
13652;DHT22;6899;51.546;6.912;2023-04-24T12:19:48;10.30;99.90
13652;DHT22;6899;51.546;6.912;2023-04-24T12:22:16;10.10;99.90
13652;DHT22;6899;51.546;6.912;2023-04-24T12:24:59;10.00;99.90
13652;DHT22;6899;51.546;6.912;2023-04-24T12:27:29;9.90;99.90
13652;DHT22;6899;51.546;6.912;2023-04-24T12:29:57;9.50;99.90
13652;DHT22;6899;51.546;6.912;2023-04-24T12:32:24;9.40;99.90
13652;DHT22;6899;51.546;6.912;2023-04-24T12:34:54;9.40;99.90
13652;DHT22;6899;51.546;6.912;2023-04-24T12:37:22;9.50;99.90
13652;DHT22;6899;51.546;6.912;2023-04-24T12:39:58;9.70;99.90
13652;DHT22;6899;51.546;6.912;2023-04-24T12:42:26;10.40;99.90
13652;DHT22;6899;51.546;6.912;2023-04-24T12:44:56;11.10;99.90
13652;DHT22;6899;51.546;6.912;2023-04-24T12:47:24;11.60;99.90
13652;DHT22;6899;51.546;6.912;2023-04-24T12:49:52;12.10;99.90
13652;DHT22;6899;51.546;6.912;2023-04-24T12:52:21;12.10;99.90
13652;DHT22;6899;51.546;6.912;2023-04-24T12:54:47;12.00;99.90
13652;DHT22;6899;51.546;6.912;2023-04-24T12:57:14;11.70;99.90
13652;DHT22;6899;51.546;6.912;2023-04-24T12:59:41;11.80;99.90
13652;DHT22;6899;51.546;6.912;2023-04-24T13:02:09;11.50;99.90
13652;DHT22;6899;51.546;6.912;2023-04-24T13:04:35;11.20;99.90
13652;DHT22;6899;51.546;6.912;2023-04-24T13:07:04;10.90;99.90
13652;DHT22;6899;51.546;6.912;2023-04-24T13:09:34;10.80;99.90
13652;DHT22;6899;51.546;6.912;2023-04-24T13:12:05;10.70;99.90
13652;DHT22;6899;51.546;6.912;2023-04-24T13:14:32;10.60;99.90
13652;DHT22;6899;51.546;6.912;2023-04-24T13:16:58;10.60;99.90
13652;DHT22;6899;51.546;6.912;2023-04-24T13:19:29;10.50;99.90
13652;DHT22;6899;51.546;6.912;2023-04-24T13:21:56;10.50;99.90
13652;DHT22;6899;51.546;6.912;2023-04-24T13:24:25;10.40;99.90
13652;DHT22;6899;51.546;6.912;2023-04-24T13:26:52;10.40;99.90
13652;DHT22;6899;51.546;6.912;2023-04-24T13:29:19;10.20;99.90
13652;DHT22;6899;51.546;6.912;2023-04-24T13:31:46;10.10;99.90
13652;DHT22;6899;51.546;6.912;2023-04-24T13:34:17;10.20;99.90
13652;DHT22;6899;51.546;6.912;2023-04-24T13:36:47;10.30;99.90
13652;DHT22;6899;51.546;6.912;2023-04-24T13:39:14;10.20;99.90
13652;DHT22;6899;51.546;6.912;2023-04-24T13:41:43;10.40;99.90
13652;DHT22;6899;51.546;6.912;2023-04-24T13:44:10;10.70;99.90
13652;DHT22;6899;51.546;6.912;2023-04-24T13:46:37;11.30;99.90
13652;DHT22;6899;51.546;6.912;2023-04-24T13:49:04;12.00;99.90
13652;DHT22;6899;51.546;6.912;2023-04-24T13:51:30;12.30;99.90
13652;DHT22;6899;51.546;6.912;2023-04-24T13:53:57;12.50;99.90
13652;DHT22;6899;51.546;6.912;2023-04-24T13:56:25;12.60;99.90
13652;DHT22;6899;51.546;6.912;2023-04-24T13:58:53;12.80;99.90
13652;DHT22;6899;51.546;6.912;2023-04-24T14:01:23;12.80;99.90
13652;DHT22;6899;51.546;6.912;2023-04-24T14:03:50;12.70;99.90
13652;DHT22;6899;51.546;6.912;2023-04-24T14:06:17;12.90;99.90
13652;DHT22;6899;51.546;6.912;2023-04-24T14:08:47;13.00;99.90
13652;DHT22;6899;51.546;6.912;2023-04-24T14:11:14;13.10;99.90
13652;DHT22;6899;51.546;6.912;2023-04-24T14:13:41;13.10;99.90
13652;DHT22;6899;51.546;6.912;2023-04-24T14:16:10;12.70;99.90
13652;DHT22;6899;51.546;6.912;2023-04-24T14:18:37;12.00;99.90
13652;DHT22;6899;51.546;6.912;2023-04-24T14:21:06;11.30;99.90
13652;DHT22;6899;51.546;6.912;2023-04-24T14:23:33;10.60;99.90
13652;DHT22;6899;51.546;6.912;2023-04-24T14:26:00;10.20;99.90
13652;DHT22;6899;51.546;6.912;2023-04-24T14:28:27;9.90;99.90
13652;DHT22;6899;51.546;6.912;2023-04-24T14:30:54;9.70;99.90
13652;DHT22;6899;51.546;6.912;2023-04-24T14:33:22;9.50;99.90
13652;DHT22;6899;51.546;6.912;2023-04-24T14:35:48;9.20;99.90
13652;DHT22;6899;51.546;6.912;2023-04-24T14:38:15;8.80;99.90
13652;DHT22;6899;51.546;6.912;2023-04-24T14:40:42;8.60;99.90
13652;DHT22;6899;51.546;6.912;2023-04-24T14:43:09;8.70;99.90
13652;DHT22;6899;51.546;6.912;2023-04-24T14:45:41;8.90;99.90
13652;DHT22;6899;51.546;6.912;2023-04-24T14:48:08;9.10;99.90
13652;DHT22;6899;51.546;6.912;2023-04-24T14:50:38;9.20;99.90
13652;DHT22;6899;51.546;6.912;2023-04-24T14:53:04;9.30;99.90
13652;DHT22;6899;51.546;6.912;2023-04-24T14:55:31;9.30;99.90
13652;DHT22;6899;51.546;6.912;2023-04-24T14:57:59;9.40;99.90
13652;DHT22;6899;51.546;6.912;2023-04-24T15:00:26;9.70;99.90
13652;DHT22;6899;51.546;6.912;2023-04-24T15:02:53;9.80;99.90
13652;DHT22;6899;51.546;6.912;2023-04-24T15:05:23;9.90;99.90
13652;DHT22;6899;51.546;6.912;2023-04-24T15:07:52;10.00;99.90
13652;DHT22;6899;51.546;6.912;2023-04-24T15:10:19;10.10;99.90
13652;DHT22;6899;51.546;6.912;2023-04-24T15:12:48;10.40;99.90
13652;DHT22;6899;51.546;6.912;2023-04-24T15:15:18;10.70;99.90
13652;DHT22;6899;51.546;6.912;2023-04-24T15:17:44;10.80;99.90
13652;DHT22;6899;51.546;6.912;2023-04-24T15:20:14;10.90;99.90
13652;DHT22;6899;51.546;6.912;2023-04-24T15:22:44;11.10;99.90
13652;DHT22;6899;51.546;6.912;2023-04-24T15:25:12;11.10;99.90
13652;DHT22;6899;51.546;6.912;2023-04-24T15:27:40;11.10;99.90
13652;DHT22;6899;51.546;6.912;2023-04-24T15:30:08;10.90;99.90
13652;DHT22;6899;51.546;6.912;2023-04-24T15:32:35;11.00;99.90
13652;DHT22;6899;51.546;6.912;2023-04-24T15:35:02;11.10;99.90
13652;DHT22;6899;51.546;6.912;2023-04-24T15:37:29;11.40;99.90
13652;DHT22;6899;51.546;6.912;2023-04-24T15:39:59;12.10;99.90
13652;DHT22;6899;51.546;6.912;2023-04-24T15:42:32;12.50;99.90
13652;DHT22;6899;51.546;6.912;2023-04-24T15:44:58;12.20;99.90
13652;DHT22;6899;51.546;6.912;2023-04-24T15:47:25;12.30;99.90
13652;DHT22;6899;51.546;6.912;2023-04-24T15:49:52;12.40;99.90
13652;DHT22;6899;51.546;6.912;2023-04-24T15:52:19;12.30;99.90
13652;DHT22;6899;51.546;6.912;2023-04-24T15:54:46;12.50;99.90
13652;DHT22;6899;51.546;6.912;2023-04-24T15:57:12;12.20;99.90
13652;DHT22;6899;51.546;6.912;2023-04-24T15:59:46;12.10;99.90
13652;DHT22;6899;51.546;6.912;2023-04-24T16:02:14;12.10;99.90
13652;DHT22;6899;51.546;6.912;2023-04-24T16:04:43;12.10;99.90